sensor_id;sensor_type;location;lat;lon;timestamp;P1;durP1;ratioP1;P2;durP2;ratioP2
35877;SDS011;21982;49.804;24.072;2022-08-11T00:00:11;3.65;;;2.35;;
35877;SDS011;21982;49.804;24.072;2022-08-11T00:02:42;7.70;;;2.17;;
35877;SDS011;21982;49.804;24.072;2022-08-11T00:05:19;5.68;;;2.17;;
35877;SDS011;21982;49.804;24.072;2022-08-11T00:07:47;4.85;;;2.33;;
35877;SDS011;21982;49.804;24.072;2022-08-11T00:10:17;6.95;;;3.20;;
35877;SDS011;21982;49.804;24.072;2022-08-11T00:12:56;4.28;;;2.10;;
35877;SDS011;21982;49.804;24.072;2022-08-11T00:15:36;5.35;;;1.90;;
35877;SDS011;21982;49.804;24.072;2022-08-11T00:18:10;5.47;;;1.95;;
35877;SDS011;21982;49.804;24.072;2022-08-11T00:20:39;6.13;;;2.53;;
35877;SDS011;21982;49.804;24.072;2022-08-11T00:23:09;5.68;;;2.53;;
35877;SDS011;21982;49.804;24.072;2022-08-11T00:25:41;4.05;;;2.63;;
35877;SDS011;21982;49.804;24.072;2022-08-11T00:28:24;4.60;;;2.50;;
35877;SDS011;21982;49.804;24.072;2022-08-11T00:31:01;4.18;;;2.25;;
35877;SDS011;21982;49.804;24.072;2022-08-11T00:33:42;8.88;;;2.50;;
35877;SDS011;21982;49.804;24.072;2022-08-11T00:36:14;6.63;;;2.70;;
35877;SDS011;21982;49.804;24.072;2022-08-11T00:38:42;5.72;;;2.60;;
35877;SDS011;21982;49.804;24.072;2022-08-11T00:44:09;7.10;;;2.92;;
35877;SDS011;21982;49.804;24.072;2022-08-11T00:49:51;4.70;;;2.65;;
35877;SDS011;21982;49.804;24.072;2022-08-11T01:11:45;8.30;;;3.67;;
35877;SDS011;21982;49.804;24.072;2022-08-11T01:20:58;6.75;;;3.70;;
35877;SDS011;21982;49.804;24.072;2022-08-11T01:38:46;7.93;;;4.53;;
35877;SDS011;21982;49.804;24.072;2022-08-11T01:47:48;9.48;;;3.83;;
35877;SDS011;21982;49.804;24.072;2022-08-11T01:50:34;8.65;;;4.13;;
35877;SDS011;21982;49.804;24.072;2022-08-11T02:04:30;8.27;;;4.43;;
35877;SDS011;21982;49.804;24.072;2022-08-11T02:10:46;7.55;;;3.97;;
35877;SDS011;21982;49.804;24.072;2022-08-11T02:22:39;5.63;;;3.20;;
35877;SDS011;21982;49.804;24.072;2022-08-11T02:25:45;5.43;;;3.25;;
35877;SDS011;21982;49.804;24.072;2022-08-11T02:28:26;9.13;;;4.25;;
35877;SDS011;21982;49.804;24.072;2022-08-11T02:31:01;7.80;;;3.13;;
35877;SDS011;21982;49.804;24.072;2022-08-11T02:33:53;7.00;;;2.75;;
35877;SDS011;21982;49.804;24.072;2022-08-11T02:36:37;9.15;;;3.10;;
35877;SDS011;21982;49.804;24.072;2022-08-11T02:39:09;6.05;;;3.08;;
35877;SDS011;21982;49.804;24.072;2022-08-11T02:44:56;5.13;;;2.90;;
35877;SDS011;21982;49.804;24.072;2022-08-11T02:51:01;7.57;;;2.97;;
35877;SDS011;21982;49.804;24.072;2022-08-11T02:59:44;7.97;;;3.47;;
35877;SDS011;21982;49.804;24.072;2022-08-11T03:02:31;5.25;;;2.60;;
35877;SDS011;21982;49.804;24.072;2022-08-11T03:05:14;4.93;;;2.63;;
35877;SDS011;21982;49.804;24.072;2022-08-11T03:10:47;7.07;;;3.15;;
35877;SDS011;21982;49.804;24.072;2022-08-11T03:13:41;7.93;;;3.50;;
35877;SDS011;21982;49.804;24.072;2022-08-11T03:16:37;6.43;;;3.67;;
35877;SDS011;21982;49.804;24.072;2022-08-11T03:28:20;6.70;;;3.33;;
35877;SDS011;21982;49.804;24.072;2022-08-11T03:31:00;7.78;;;3.53;;
35877;SDS011;21982;49.804;24.072;2022-08-11T03:33:37;7.63;;;4.03;;
35877;SDS011;21982;49.804;24.072;2022-08-11T03:44:49;11.52;;;4.43;;
35877;SDS011;21982;49.804;24.072;2022-08-11T03:47:31;9.00;;;5.13;;
35877;SDS011;21982;49.804;24.072;2022-08-11T03:57:07;8.25;;;3.88;;
35877;SDS011;21982;49.804;24.072;2022-08-11T04:08:36;7.82;;;4.10;;
35877;SDS011;21982;49.804;24.072;2022-08-11T04:11:26;10.85;;;4.28;;
35877;SDS011;21982;49.804;24.072;2022-08-11T04:14:10;8.68;;;4.65;;
35877;SDS011;21982;49.804;24.072;2022-08-11T04:17:16;8.35;;;4.00;;
35877;SDS011;21982;49.804;24.072;2022-08-11T04:20:17;8.75;;;4.30;;
35877;SDS011;21982;49.804;24.072;2022-08-11T04:39:27;9.43;;;5.80;;
35877;SDS011;21982;49.804;24.072;2022-08-11T04:42:54;8.45;;;4.25;;
35877;SDS011;21982;49.804;24.072;2022-08-11T04:48:51;8.15;;;4.32;;
35877;SDS011;21982;49.804;24.072;2022-08-11T04:58:30;6.15;;;3.00;;
35877;SDS011;21982;49.804;24.072;2022-08-11T05:02:11;6.53;;;3.20;;
35877;SDS011;21982;49.804;24.072;2022-08-11T05:04:50;8.70;;;2.63;;
35877;SDS011;21982;49.804;24.072;2022-08-11T05:13:07;5.75;;;2.60;;
35877;SDS011;21982;49.804;24.072;2022-08-11T05:16:07;5.18;;;2.53;;
35877;SDS011;21982;49.804;24.072;2022-08-11T05:18:54;8.50;;;4.28;;
35877;SDS011;21982;49.804;24.072;2022-08-11T05:21:40;7.95;;;3.63;;
35877;SDS011;21982;49.804;24.072;2022-08-11T05:24:30;9.73;;;3.55;;
35877;SDS011;21982;49.804;24.072;2022-08-11T05:27:20;6.15;;;2.47;;
35877;SDS011;21982;49.804;24.072;2022-08-11T05:30:12;6.97;;;3.17;;
35877;SDS011;21982;49.804;24.072;2022-08-11T05:32:59;7.43;;;2.78;;
35877;SDS011;21982;49.804;24.072;2022-08-11T05:36:02;4.80;;;2.55;;
35877;SDS011;21982;49.804;24.072;2022-08-11T05:38:32;8.93;;;2.83;;
35877;SDS011;21982;49.804;24.072;2022-08-11T05:41:18;5.57;;;2.25;;
35877;SDS011;21982;49.804;24.072;2022-08-11T05:44:06;7.20;;;2.92;;
35877;SDS011;21982;49.804;24.072;2022-08-11T05:46:51;18.10;;;3.63;;
35877;SDS011;21982;49.804;24.072;2022-08-11T05:49:37;5.88;;;2.47;;
35877;SDS011;21982;49.804;24.072;2022-08-11T05:52:30;5.57;;;2.60;;
35877;SDS011;21982;49.804;24.072;2022-08-11T05:55:15;7.50;;;2.58;;
35877;SDS011;21982;49.804;24.072;2022-08-11T05:58:01;7.97;;;2.78;;
35877;SDS011;21982;49.804;24.072;2022-08-11T06:00:29;11.20;;;3.20;;
35877;SDS011;21982;49.804;24.072;2022-08-11T06:03:00;8.90;;;3.95;;
35877;SDS011;21982;49.804;24.072;2022-08-11T06:05:38;7.40;;;2.60;;
35877;SDS011;21982;49.804;24.072;2022-08-11T06:08:08;7.03;;;2.63;;
35877;SDS011;21982;49.804;24.072;2022-08-11T06:10:35;7.97;;;3.33;;
35877;SDS011;21982;49.804;24.072;2022-08-11T06:13:04;9.30;;;3.03;;
35877;SDS011;21982;49.804;24.072;2022-08-11T06:15:32;7.03;;;3.22;;
35877;SDS011;21982;49.804;24.072;2022-08-11T06:18:08;5.32;;;2.90;;
35877;SDS011;21982;49.804;24.072;2022-08-11T06:20:52;5.13;;;2.75;;
35877;SDS011;21982;49.804;24.072;2022-08-11T06:23:20;7.07;;;2.42;;
35877;SDS011;21982;49.804;24.072;2022-08-11T06:25:48;9.85;;;2.60;;
35877;SDS011;21982;49.804;24.072;2022-08-11T06:28:16;6.00;;;2.80;;
35877;SDS011;21982;49.804;24.072;2022-08-11T06:30:45;8.05;;;3.30;;
35877;SDS011;21982;49.804;24.072;2022-08-11T06:44:21;6.88;;;3.28;;
35877;SDS011;21982;49.804;24.072;2022-08-11T06:47:06;10.38;;;3.35;;
35877;SDS011;21982;49.804;24.072;2022-08-11T06:49:36;5.50;;;3.00;;
35877;SDS011;21982;49.804;24.072;2022-08-11T06:52:32;6.60;;;3.20;;
35877;SDS011;21982;49.804;24.072;2022-08-11T06:55:03;5.70;;;2.80;;
35877;SDS011;21982;49.804;24.072;2022-08-11T06:57:32;11.05;;;2.92;;
35877;SDS011;21982;49.804;24.072;2022-08-11T07:00:18;8.10;;;2.80;;
35877;SDS011;21982;49.804;24.072;2022-08-11T07:03:06;6.30;;;2.97;;
35877;SDS011;21982;49.804;24.072;2022-08-11T07:11:53;8.60;;;3.70;;
35877;SDS011;21982;49.804;24.072;2022-08-11T07:14:45;5.18;;;2.65;;
35877;SDS011;21982;49.804;24.072;2022-08-11T07:17:43;9.65;;;2.90;;
35877;SDS011;21982;49.804;24.072;2022-08-11T07:20:13;4.43;;;2.55;;
35877;SDS011;21982;49.804;24.072;2022-08-11T07:23:00;6.93;;;2.90;;
35877;SDS011;21982;49.804;24.072;2022-08-11T07:25:47;5.78;;;1.83;;
35877;SDS011;21982;49.804;24.072;2022-08-11T07:28:36;5.88;;;2.53;;
35877;SDS011;21982;49.804;24.072;2022-08-11T07:31:25;5.88;;;2.35;;
35877;SDS011;21982;49.804;24.072;2022-08-11T07:36:36;6.53;;;2.72;;
35877;SDS011;21982;49.804;24.072;2022-08-11T07:39:04;9.27;;;3.67;;
35877;SDS011;21982;49.804;24.072;2022-08-11T07:41:39;4.53;;;1.77;;
35877;SDS011;21982;49.804;24.072;2022-08-11T07:44:06;4.30;;;2.13;;
35877;SDS011;21982;49.804;24.072;2022-08-11T07:46:43;5.28;;;2.35;;
35877;SDS011;21982;49.804;24.072;2022-08-11T07:49:29;4.57;;;2.13;;
35877;SDS011;21982;49.804;24.072;2022-08-11T07:52:15;4.88;;;2.00;;
35877;SDS011;21982;49.804;24.072;2022-08-11T07:54:52;4.78;;;1.80;;
35877;SDS011;21982;49.804;24.072;2022-08-11T07:57:27;4.65;;;1.90;;
35877;SDS011;21982;49.804;24.072;2022-08-11T08:00:14;4.25;;;2.17;;
35877;SDS011;21982;49.804;24.072;2022-08-11T08:03:03;8.75;;;2.75;;
35877;SDS011;21982;49.804;24.072;2022-08-11T08:05:48;6.45;;;2.13;;
35877;SDS011;21982;49.804;24.072;2022-08-11T08:08:34;4.20;;;2.22;;
35877;SDS011;21982;49.804;24.072;2022-08-11T08:11:19;8.32;;;2.72;;
35877;SDS011;21982;49.804;24.072;2022-08-11T08:14:08;4.93;;;2.33;;
35877;SDS011;21982;49.804;24.072;2022-08-11T08:17:08;5.95;;;2.10;;
35877;SDS011;21982;49.804;24.072;2022-08-11T08:19:53;7.60;;;2.60;;
35877;SDS011;21982;49.804;24.072;2022-08-11T08:22:19;5.13;;;2.50;;
35877;SDS011;21982;49.804;24.072;2022-08-11T08:24:49;9.52;;;3.33;;
35877;SDS011;21982;49.804;24.072;2022-08-11T08:27:19;6.00;;;2.55;;
35877;SDS011;21982;49.804;24.072;2022-08-11T08:29:49;5.03;;;2.42;;
35877;SDS011;21982;49.804;24.072;2022-08-11T08:32:38;4.50;;;2.63;;
35877;SDS011;21982;49.804;24.072;2022-08-11T08:35:05;6.90;;;3.20;;
35877;SDS011;21982;49.804;24.072;2022-08-11T08:37:37;4.03;;;2.63;;
35877;SDS011;21982;49.804;24.072;2022-08-11T08:40:05;6.95;;;3.35;;
35877;SDS011;21982;49.804;24.072;2022-08-11T08:42:34;8.77;;;2.90;;
35877;SDS011;21982;49.804;24.072;2022-08-11T08:47:36;7.10;;;2.60;;
35877;SDS011;21982;49.804;24.072;2022-08-11T08:50:12;6.78;;;2.63;;
35877;SDS011;21982;49.804;24.072;2022-08-11T08:52:44;7.55;;;3.17;;
35877;SDS011;21982;49.804;24.072;2022-08-11T08:55:16;6.15;;;2.83;;
35877;SDS011;21982;49.804;24.072;2022-08-11T08:57:44;7.18;;;3.22;;
35877;SDS011;21982;49.804;24.072;2022-08-11T09:00:15;5.47;;;3.05;;
35877;SDS011;21982;49.804;24.072;2022-08-11T09:02:42;8.32;;;2.55;;
35877;SDS011;21982;49.804;24.072;2022-08-11T09:05:09;6.97;;;3.17;;
35877;SDS011;21982;49.804;24.072;2022-08-11T09:07:36;6.55;;;2.40;;
35877;SDS011;21982;49.804;24.072;2022-08-11T09:10:02;6.10;;;2.55;;
35877;SDS011;21982;49.804;24.072;2022-08-11T09:12:31;8.18;;;2.65;;
35877;SDS011;21982;49.804;24.072;2022-08-11T09:14:59;7.35;;;2.40;;
35877;SDS011;21982;49.804;24.072;2022-08-11T09:19:57;6.47;;;2.55;;
35877;SDS011;21982;49.804;24.072;2022-08-11T09:22:25;7.35;;;2.67;;
35877;SDS011;21982;49.804;24.072;2022-08-11T09:25:10;5.13;;;2.30;;
35877;SDS011;21982;49.804;24.072;2022-08-11T09:27:55;5.72;;;2.55;;
35877;SDS011;21982;49.804;24.072;2022-08-11T09:30:25;5.88;;;2.20;;
35877;SDS011;21982;49.804;24.072;2022-08-11T09:32:54;6.15;;;2.33;;
35877;SDS011;21982;49.804;24.072;2022-08-11T09:35:28;4.18;;;2.63;;
35877;SDS011;21982;49.804;24.072;2022-08-11T09:37:56;5.35;;;2.10;;
35877;SDS011;21982;49.804;24.072;2022-08-11T09:40:45;4.63;;;2.53;;
35877;SDS011;21982;49.804;24.072;2022-08-11T09:43:14;4.68;;;2.33;;
35877;SDS011;21982;49.804;24.072;2022-08-11T09:46:19;4.75;;;2.15;;
35877;SDS011;21982;49.804;24.072;2022-08-11T09:48:51;6.53;;;2.25;;
35877;SDS011;21982;49.804;24.072;2022-08-11T09:51:29;4.38;;;1.90;;
35877;SDS011;21982;49.804;24.072;2022-08-11T09:53:59;4.93;;;1.95;;
35877;SDS011;21982;49.804;24.072;2022-08-11T09:56:31;4.03;;;2.15;;
35877;SDS011;21982;49.804;24.072;2022-08-11T09:59:17;5.75;;;2.78;;
35877;SDS011;21982;49.804;24.072;2022-08-11T10:01:54;4.43;;;2.13;;
35877;SDS011;21982;49.804;24.072;2022-08-11T10:07:12;5.05;;;2.38;;
35877;SDS011;21982;49.804;24.072;2022-08-11T10:12:09;5.68;;;2.50;;
35877;SDS011;21982;49.804;24.072;2022-08-11T10:14:41;11.88;;;2.55;;
35877;SDS011;21982;49.804;24.072;2022-08-11T10:17:29;5.72;;;2.05;;
35877;SDS011;21982;49.804;24.072;2022-08-11T10:19:57;4.30;;;2.35;;
35877;SDS011;21982;49.804;24.072;2022-08-11T10:22:27;4.75;;;2.00;;
35877;SDS011;21982;49.804;24.072;2022-08-11T10:25:11;2.90;;;1.90;;
35877;SDS011;21982;49.804;24.072;2022-08-11T10:27:56;3.05;;;1.60;;
35877;SDS011;21982;49.804;24.072;2022-08-11T10:30:24;4.05;;;2.45;;
35877;SDS011;21982;49.804;24.072;2022-08-11T10:33:11;5.75;;;2.28;;
35877;SDS011;21982;49.804;24.072;2022-08-11T10:35:56;4.53;;;2.33;;
35877;SDS011;21982;49.804;24.072;2022-08-11T10:38:24;4.25;;;2.03;;
35877;SDS011;21982;49.804;24.072;2022-08-11T10:40:50;3.75;;;2.25;;
35877;SDS011;21982;49.804;24.072;2022-08-11T10:43:37;6.38;;;2.60;;
35877;SDS011;21982;49.804;24.072;2022-08-11T10:46:05;4.28;;;2.45;;
35877;SDS011;21982;49.804;24.072;2022-08-11T10:48:52;4.57;;;2.50;;
35877;SDS011;21982;49.804;24.072;2022-08-11T10:51:20;6.97;;;2.50;;
35877;SDS011;21982;49.804;24.072;2022-08-11T10:54:05;5.35;;;2.83;;
35877;SDS011;21982;49.804;24.072;2022-08-11T10:56:51;4.63;;;2.70;;
35877;SDS011;21982;49.804;24.072;2022-08-11T10:59:40;4.75;;;3.35;;
35877;SDS011;21982;49.804;24.072;2022-08-11T11:02:10;8.00;;;2.78;;
35877;SDS011;21982;49.804;24.072;2022-08-11T11:04:59;6.03;;;2.70;;
35877;SDS011;21982;49.804;24.072;2022-08-11T11:10:53;6.38;;;2.35;;
35877;SDS011;21982;49.804;24.072;2022-08-11T11:13:20;9.60;;;2.80;;
35877;SDS011;21982;49.804;24.072;2022-08-11T11:16:06;5.68;;;2.80;;
35877;SDS011;21982;49.804;24.072;2022-08-11T11:18:51;9.00;;;2.80;;
35877;SDS011;21982;49.804;24.072;2022-08-11T11:21:18;5.65;;;2.75;;
35877;SDS011;21982;49.804;24.072;2022-08-11T11:32:19;6.88;;;3.50;;
35877;SDS011;21982;49.804;24.072;2022-08-11T11:37:28;7.75;;;3.85;;
35877;SDS011;21982;49.804;24.072;2022-08-11T11:40:07;8.45;;;4.30;;
35877;SDS011;21982;49.804;24.072;2022-08-11T11:42:38;7.05;;;4.30;;
35877;SDS011;21982;49.804;24.072;2022-08-11T11:45:06;8.10;;;3.97;;
35877;SDS011;21982;49.804;24.072;2022-08-11T11:47:34;4.75;;;3.50;;
35877;SDS011;21982;49.804;24.072;2022-08-11T11:50:03;5.60;;;3.72;;
35877;SDS011;21982;49.804;24.072;2022-08-11T11:52:33;6.68;;;4.03;;
35877;SDS011;21982;49.804;24.072;2022-08-11T11:55:02;5.88;;;4.00;;
35877;SDS011;21982;49.804;24.072;2022-08-11T11:57:30;8.02;;;3.63;;
35877;SDS011;21982;49.804;24.072;2022-08-11T12:00:17;5.65;;;3.08;;
35877;SDS011;21982;49.804;24.072;2022-08-11T12:03:03;5.30;;;3.30;;
35877;SDS011;21982;49.804;24.072;2022-08-11T12:05:35;7.63;;;3.50;;
35877;SDS011;21982;49.804;24.072;2022-08-11T12:08:02;4.97;;;2.92;;
35877;SDS011;21982;49.804;24.072;2022-08-11T12:10:48;7.60;;;3.45;;
35877;SDS011;21982;49.804;24.072;2022-08-11T12:13:39;7.70;;;3.97;;
35877;SDS011;21982;49.804;24.072;2022-08-11T12:16:07;6.28;;;3.20;;
35877;SDS011;21982;49.804;24.072;2022-08-11T12:18:34;5.53;;;3.00;;
35877;SDS011;21982;49.804;24.072;2022-08-11T12:21:04;6.95;;;3.90;;
35877;SDS011;21982;49.804;24.072;2022-08-11T12:23:32;6.05;;;3.28;;
35877;SDS011;21982;49.804;24.072;2022-08-11T12:26:18;12.52;;;4.07;;
35877;SDS011;21982;49.804;24.072;2022-08-11T12:29:07;9.30;;;3.67;;
35877;SDS011;21982;49.804;24.072;2022-08-11T12:31:35;9.77;;;4.65;;
35877;SDS011;21982;49.804;24.072;2022-08-11T12:34:04;7.30;;;4.22;;
35877;SDS011;21982;49.804;24.072;2022-08-11T12:36:39;4.97;;;2.88;;
35877;SDS011;21982;49.804;24.072;2022-08-11T12:39:09;6.90;;;3.20;;
35877;SDS011;21982;49.804;24.072;2022-08-11T12:41:37;5.28;;;3.45;;
35877;SDS011;21982;49.804;24.072;2022-08-11T12:44:25;12.57;;;3.60;;
35877;SDS011;21982;49.804;24.072;2022-08-11T12:47:11;6.50;;;3.50;;
35877;SDS011;21982;49.804;24.072;2022-08-11T12:50:00;8.23;;;3.60;;
35877;SDS011;21982;49.804;24.072;2022-08-11T12:52:47;7.60;;;3.55;;
35877;SDS011;21982;49.804;24.072;2022-08-11T12:55:18;5.35;;;3.33;;
35877;SDS011;21982;49.804;24.072;2022-08-11T12:58:06;9.98;;;3.40;;
35877;SDS011;21982;49.804;24.072;2022-08-11T13:00:42;6.00;;;2.88;;
35877;SDS011;21982;49.804;24.072;2022-08-11T13:03:27;8.98;;;3.85;;
35877;SDS011;21982;49.804;24.072;2022-08-11T13:06:12;8.82;;;4.00;;
35877;SDS011;21982;49.804;24.072;2022-08-11T13:08:39;9.80;;;3.80;;
35877;SDS011;21982;49.804;24.072;2022-08-11T13:11:05;9.48;;;4.00;;
35877;SDS011;21982;49.804;24.072;2022-08-11T13:13:50;8.40;;;4.72;;
35877;SDS011;21982;49.804;24.072;2022-08-11T13:16:28;9.25;;;3.97;;
35877;SDS011;21982;49.804;24.072;2022-08-11T13:18:57;9.38;;;3.60;;
35877;SDS011;21982;49.804;24.072;2022-08-11T13:21:31;12.55;;;4.40;;
35877;SDS011;21982;49.804;24.072;2022-08-11T13:23:57;12.77;;;4.55;;
35877;SDS011;21982;49.804;24.072;2022-08-11T13:26:25;10.63;;;5.03;;
35877;SDS011;21982;49.804;24.072;2022-08-11T13:28:50;7.63;;;4.55;;
35877;SDS011;21982;49.804;24.072;2022-08-11T13:31:16;7.07;;;4.40;;
35877;SDS011;21982;49.804;24.072;2022-08-11T13:33:47;13.95;;;5.45;;
35877;SDS011;21982;49.804;24.072;2022-08-11T13:36:24;9.43;;;4.25;;
35877;SDS011;21982;49.804;24.072;2022-08-11T13:38:56;6.40;;;3.47;;
35877;SDS011;21982;49.804;24.072;2022-08-11T13:41:23;7.50;;;4.03;;
35877;SDS011;21982;49.804;24.072;2022-08-11T13:44:12;10.15;;;4.68;;
35877;SDS011;21982;49.804;24.072;2022-08-11T13:46:44;9.20;;;4.00;;
35877;SDS011;21982;49.804;24.072;2022-08-11T13:49:14;7.28;;;4.45;;
35877;SDS011;21982;49.804;24.072;2022-08-11T13:51:41;8.75;;;3.80;;
35877;SDS011;21982;49.804;24.072;2022-08-11T13:54:16;6.82;;;3.20;;
35877;SDS011;21982;49.804;24.072;2022-08-11T13:56:45;7.25;;;3.53;;
35877;SDS011;21982;49.804;24.072;2022-08-11T13:59:13;10.02;;;3.67;;
35877;SDS011;21982;49.804;24.072;2022-08-11T14:01:46;7.28;;;4.22;;
35877;SDS011;21982;49.804;24.072;2022-08-11T14:04:24;11.38;;;4.70;;
35877;SDS011;21982;49.804;24.072;2022-08-11T14:07:05;14.30;;;5.97;;
35877;SDS011;21982;49.804;24.072;2022-08-11T14:09:36;12.75;;;7.15;;
35877;SDS011;21982;49.804;24.072;2022-08-11T14:12:27;11.90;;;6.22;;
35877;SDS011;21982;49.804;24.072;2022-08-11T14:15:18;10.38;;;5.82;;
35877;SDS011;21982;49.804;24.072;2022-08-11T14:17:50;10.75;;;5.38;;
35877;SDS011;21982;49.804;24.072;2022-08-11T14:20:30;8.38;;;5.03;;
35877;SDS011;21982;49.804;24.072;2022-08-11T14:23:41;6.50;;;3.90;;
35877;SDS011;21982;49.804;24.072;2022-08-11T14:26:10;10.90;;;3.88;;
35877;SDS011;21982;49.804;24.072;2022-08-11T14:28:54;6.72;;;3.58;;
35877;SDS011;21982;49.804;24.072;2022-08-11T14:31:30;7.28;;;3.50;;
35877;SDS011;21982;49.804;24.072;2022-08-11T14:34:01;6.50;;;3.20;;
35877;SDS011;21982;49.804;24.072;2022-08-11T14:36:33;6.63;;;3.03;;
35877;SDS011;21982;49.804;24.072;2022-08-11T14:39:20;4.80;;;2.80;;
35877;SDS011;21982;49.804;24.072;2022-08-11T14:41:49;7.65;;;3.22;;
35877;SDS011;21982;49.804;24.072;2022-08-11T14:44:39;6.95;;;3.30;;
35877;SDS011;21982;49.804;24.072;2022-08-11T14:47:27;7.75;;;3.28;;
35877;SDS011;21982;49.804;24.072;2022-08-11T14:49:55;6.32;;;3.28;;
35877;SDS011;21982;49.804;24.072;2022-08-11T14:52:23;6.68;;;3.28;;
35877;SDS011;21982;49.804;24.072;2022-08-11T14:54:51;7.53;;;3.33;;
35877;SDS011;21982;49.804;24.072;2022-08-11T14:57:38;9.60;;;3.75;;
35877;SDS011;21982;49.804;24.072;2022-08-11T15:00:09;12.13;;;6.40;;
35877;SDS011;21982;49.804;24.072;2022-08-11T15:02:39;6.88;;;3.33;;
35877;SDS011;21982;49.804;24.072;2022-08-11T15:05:28;8.63;;;4.22;;
35877;SDS011;21982;49.804;24.072;2022-08-11T15:07:58;6.95;;;3.47;;
35877;SDS011;21982;49.804;24.072;2022-08-11T15:10:24;7.82;;;3.70;;
35877;SDS011;21982;49.804;24.072;2022-08-11T15:12:51;7.93;;;4.38;;
35877;SDS011;21982;49.804;24.072;2022-08-11T15:15:16;12.15;;;6.82;;
35877;SDS011;21982;49.804;24.072;2022-08-11T15:18:04;14.15;;;6.78;;
35877;SDS011;21982;49.804;24.072;2022-08-11T15:20:34;13.25;;;6.28;;
35877;SDS011;21982;49.804;24.072;2022-08-11T15:23:21;9.02;;;5.07;;
35877;SDS011;21982;49.804;24.072;2022-08-11T15:26:31;10.40;;;5.57;;
35877;SDS011;21982;49.804;24.072;2022-08-11T15:29:21;8.65;;;4.90;;
35877;SDS011;21982;49.804;24.072;2022-08-11T15:32:08;11.60;;;4.78;;
35877;SDS011;21982;49.804;24.072;2022-08-11T15:35:02;7.93;;;5.05;;
35877;SDS011;21982;49.804;24.072;2022-08-11T15:37:51;9.65;;;4.85;;
35877;SDS011;21982;49.804;24.072;2022-08-11T15:40:29;8.77;;;5.13;;
35877;SDS011;21982;49.804;24.072;2022-08-11T15:46:09;8.77;;;4.85;;
35877;SDS011;21982;49.804;24.072;2022-08-11T15:48:42;8.95;;;5.07;;
35877;SDS011;21982;49.804;24.072;2022-08-11T15:51:33;7.47;;;5.20;;
35877;SDS011;21982;49.804;24.072;2022-08-11T15:54:19;12.57;;;6.00;;
35877;SDS011;21982;49.804;24.072;2022-08-11T15:56:51;10.93;;;6.00;;
35877;SDS011;21982;49.804;24.072;2022-08-11T15:59:22;8.88;;;5.00;;
35877;SDS011;21982;49.804;24.072;2022-08-11T16:02:24;5.93;;;3.70;;
35877;SDS011;21982;49.804;24.072;2022-08-11T16:05:11;10.45;;;5.43;;
35877;SDS011;21982;49.804;24.072;2022-08-11T16:07:39;10.80;;;5.50;;
35877;SDS011;21982;49.804;24.072;2022-08-11T16:10:07;9.10;;;5.95;;
35877;SDS011;21982;49.804;24.072;2022-08-11T16:12:40;7.45;;;4.43;;
35877;SDS011;21982;49.804;24.072;2022-08-11T16:15:29;10.90;;;4.22;;
35877;SDS011;21982;49.804;24.072;2022-08-11T16:18:18;8.07;;;4.15;;
35877;SDS011;21982;49.804;24.072;2022-08-11T16:20:49;5.35;;;3.13;;
35877;SDS011;21982;49.804;24.072;2022-08-11T16:23:19;6.40;;;2.63;;
35877;SDS011;21982;49.804;24.072;2022-08-11T16:25:50;6.32;;;3.00;;
35877;SDS011;21982;49.804;24.072;2022-08-11T16:28:28;3.95;;;2.05;;
35877;SDS011;21982;49.804;24.072;2022-08-11T16:31:02;5.82;;;1.63;;
35877;SDS011;21982;49.804;24.072;2022-08-11T16:33:35;2.35;;;1.40;;
35877;SDS011;21982;49.804;24.072;2022-08-11T16:36:06;2.95;;;1.30;;
35877;SDS011;21982;49.804;24.072;2022-08-11T16:38:55;2.35;;;1.33;;
35877;SDS011;21982;49.804;24.072;2022-08-11T16:41:26;3.97;;;2.13;;
35877;SDS011;21982;49.804;24.072;2022-08-11T16:44:14;3.78;;;1.98;;
35877;SDS011;21982;49.804;24.072;2022-08-11T16:47:23;3.05;;;1.80;;
35877;SDS011;21982;49.804;24.072;2022-08-11T16:50:00;3.55;;;1.90;;
35877;SDS011;21982;49.804;24.072;2022-08-11T16:52:36;7.55;;;2.47;;
35877;SDS011;21982;49.804;24.072;2022-08-11T16:55:02;3.42;;;2.00;;
35877;SDS011;21982;49.804;24.072;2022-08-11T16:57:29;3.53;;;1.90;;
35877;SDS011;21982;49.804;24.072;2022-08-11T17:00:16;3.47;;;2.00;;
35877;SDS011;21982;49.804;24.072;2022-08-11T17:02:49;5.28;;;2.17;;
35877;SDS011;21982;49.804;24.072;2022-08-11T17:05:35;5.60;;;2.28;;
35877;SDS011;21982;49.804;24.072;2022-08-11T17:08:35;9.15;;;4.20;;
35877;SDS011;21982;49.804;24.072;2022-08-11T17:11:25;6.95;;;3.17;;
35877;SDS011;21982;49.804;24.072;2022-08-11T17:14:12;6.05;;;3.20;;
35877;SDS011;21982;49.804;24.072;2022-08-11T17:16:51;6.40;;;2.92;;
35877;SDS011;21982;49.804;24.072;2022-08-11T17:19:22;7.18;;;3.55;;
35877;SDS011;21982;49.804;24.072;2022-08-11T17:21:53;9.25;;;4.65;;
35877;SDS011;21982;49.804;24.072;2022-08-11T17:24:40;6.47;;;3.97;;
35877;SDS011;21982;49.804;24.072;2022-08-11T17:27:09;7.22;;;4.90;;
35877;SDS011;21982;49.804;24.072;2022-08-11T17:29:43;9.68;;;6.15;;
35877;SDS011;21982;49.804;24.072;2022-08-11T17:32:22;7.00;;;4.40;;
35877;SDS011;21982;49.804;24.072;2022-08-11T17:35:17;8.60;;;4.65;;
35877;SDS011;21982;49.804;24.072;2022-08-11T17:40:40;8.30;;;4.80;;
35877;SDS011;21982;49.804;24.072;2022-08-11T17:43:30;9.63;;;5.53;;
35877;SDS011;21982;49.804;24.072;2022-08-11T17:46:16;10.80;;;6.32;;
35877;SDS011;21982;49.804;24.072;2022-08-11T17:49:02;8.73;;;4.55;;
35877;SDS011;21982;49.804;24.072;2022-08-11T17:51:35;9.48;;;4.75;;
35877;SDS011;21982;49.804;24.072;2022-08-11T17:54:25;9.50;;;5.50;;
35877;SDS011;21982;49.804;24.072;2022-08-11T17:57:10;10.35;;;4.85;;
35877;SDS011;21982;49.804;24.072;2022-08-11T17:59:57;8.40;;;4.40;;
35877;SDS011;21982;49.804;24.072;2022-08-11T18:02:43;7.50;;;4.57;;
35877;SDS011;21982;49.804;24.072;2022-08-11T18:05:32;16.10;;;9.65;;
35877;SDS011;21982;49.804;24.072;2022-08-11T18:08:05;9.50;;;5.53;;
35877;SDS011;21982;49.804;24.072;2022-08-11T18:10:53;11.85;;;6.03;;
35877;SDS011;21982;49.804;24.072;2022-08-11T18:13:39;6.07;;;3.63;;
35877;SDS011;21982;49.804;24.072;2022-08-11T18:16:24;10.13;;;5.57;;
35877;SDS011;21982;49.804;24.072;2022-08-11T18:19:11;10.68;;;6.45;;
35877;SDS011;21982;49.804;24.072;2022-08-11T18:22:02;7.85;;;3.25;;
35877;SDS011;21982;49.804;24.072;2022-08-11T18:25:19;8.02;;;5.05;;
35877;SDS011;21982;49.804;24.072;2022-08-11T18:28:08;7.28;;;3.90;;
35877;SDS011;21982;49.804;24.072;2022-08-11T18:31:04;7.57;;;4.38;;
35877;SDS011;21982;49.804;24.072;2022-08-11T18:33:54;12.82;;;7.85;;
35877;SDS011;21982;49.804;24.072;2022-08-11T18:36:42;10.25;;;4.72;;
35877;SDS011;21982;49.804;24.072;2022-08-11T18:39:34;12.25;;;6.20;;
35877;SDS011;21982;49.804;24.072;2022-08-11T18:42:24;10.85;;;8.15;;
35877;SDS011;21982;49.804;24.072;2022-08-11T18:45:12;12.77;;;7.60;;
35877;SDS011;21982;49.804;24.072;2022-08-11T18:48:03;19.33;;;11.35;;
35877;SDS011;21982;49.804;24.072;2022-08-11T18:50:54;9.82;;;5.70;;
35877;SDS011;21982;49.804;24.072;2022-08-11T18:53:41;8.10;;;4.75;;
35877;SDS011;21982;49.804;24.072;2022-08-11T18:56:29;9.05;;;4.28;;
35877;SDS011;21982;49.804;24.072;2022-08-11T18:59:16;7.85;;;4.55;;
35877;SDS011;21982;49.804;24.072;2022-08-11T19:02:03;9.23;;;6.43;;
35877;SDS011;21982;49.804;24.072;2022-08-11T19:04:48;8.73;;;5.15;;
35877;SDS011;21982;49.804;24.072;2022-08-11T19:07:34;9.10;;;5.57;;
35877;SDS011;21982;49.804;24.072;2022-08-11T19:10:26;8.07;;;4.00;;
35877;SDS011;21982;49.804;24.072;2022-08-11T19:15:55;6.45;;;3.53;;